Estación Meteorológica Peña el Pijo (Robertgarden) [ 11/12/19 04:54:46 CET ]

Fecha Hora Presion(HPa) Temp (°C) Humedad % Rocio (°C) Viento ( m/s) Direccion Lluvia 1Hora(mm) Lluvia 24H(mm) LLuvia Total(mm)
2019-May-28 01:01:51 1005.200 18.1 61 10.4         318.05
2019-May-28 02:02:01 1005.000 17.5 63 10.3         318.05
2019-May-28 03:03:45 1005.000 17.6 67 11.4         318.05
2019-May-28 04:01:39 1004.800 16.6 70 11.1         318.05
2019-May-28 05:06:07 1004.800 17.4 72 12.3         318.05
2019-May-28 06:01:42 1005.100 19.3 76 15.0         318.05
2019-May-28 07:02:03 1005.300 18.1 79 14.4         318.05
2019-May-28 08:01:39 1005.900 18.3 82 15.2         318.05
2019-May-28 09:01:43 1005.900 18.4 69 12.6         318.05
2019-May-28 10:02:06 1006.000 22.8 50 11.8         318.05
2019-May-28 11:01:41 1006.000 26.4 41 12.1 1.5 N     318.05
2019-May-28 12:01:53 1006.300 27.3 35 10.4         318.05
2019-May-28 13:01:51 1006.000 26.8 34 9.5         318.05
2019-May-28 14:01:31 1005.900 27.9 34 10.5         318.05
2019-May-28 15:01:41 1005.800 29.8 27 8.6         318.05
2019-May-28 16:01:53 1005.400 31.9 25 9.2         318.05
2019-May-28 17:01:39 1005.600 30.6 23 6.9         318.05
2019-May-28 18:01:43 1005.800 30.1 25 7.7         318.05
2019-May-28 19:01:42 1005.900 28.8 27 7.8 0.4 NNE     318.05
2019-May-28 20:01:34 1006.500 26.4 29 6.9         318.05
2019-May-28 21:01:35 1007.200 22.6 34 5.8         318.05
2019-May-28 22:01:39 1008.200 19.8 37 4.6         318.05
2019-May-28 23:01:31 1009.300 17.3 47 5.8         318.05

Temperatura Máxima:31°    Temperatura Mínima:16°
Presión Máxima:1009.300 Hpa    Presión Mínima:1004.800 Hpa


Volver